sensor_id;sensor_type;location;lat;lon;timestamp;P1;durP1;ratioP1;P2;durP2;ratioP2
9322;SDS011;4700;48.822;9.270;2023-06-24T00:00:54;24.00;;;22.57;;
9322;SDS011;4700;48.822;9.270;2023-06-24T00:03:39;22.20;;;20.90;;
9322;SDS011;4700;48.822;9.270;2023-06-24T00:06:31;27.27;;;25.83;;
9322;SDS011;4700;48.822;9.270;2023-06-24T00:09:18;26.73;;;25.13;;
9322;SDS011;4700;48.822;9.270;2023-06-24T00:12:04;21.40;;;20.13;;
9322;SDS011;4700;48.822;9.270;2023-06-24T00:14:50;25.30;;;23.47;;
9322;SDS011;4700;48.822;9.270;2023-06-24T00:17:36;33.77;;;31.93;;
9322;SDS011;4700;48.822;9.270;2023-06-24T00:20:22;31.57;;;29.83;;
9322;SDS011;4700;48.822;9.270;2023-06-24T00:23:09;30.83;;;29.33;;
9322;SDS011;4700;48.822;9.270;2023-06-24T00:25:58;35.00;;;33.27;;
9322;SDS011;4700;48.822;9.270;2023-06-24T00:28:44;23.10;;;21.87;;
9322;SDS011;4700;48.822;9.270;2023-06-24T00:31:32;24.97;;;23.67;;
9322;SDS011;4700;48.822;9.270;2023-06-24T00:34:18;24.67;;;23.37;;
9322;SDS011;4700;48.822;9.270;2023-06-24T00:37:04;26.77;;;25.33;;
9322;SDS011;4700;48.822;9.270;2023-06-24T00:39:53;31.00;;;29.33;;
9322;SDS011;4700;48.822;9.270;2023-06-24T00:42:39;26.60;;;25.13;;
9322;SDS011;4700;48.822;9.270;2023-06-24T00:45:25;28.50;;;26.70;;
9322;SDS011;4700;48.822;9.270;2023-06-24T00:48:11;26.43;;;25.00;;
9322;SDS011;4700;48.822;9.270;2023-06-24T00:50:57;26.47;;;25.03;;
9322;SDS011;4700;48.822;9.270;2023-06-24T00:53:43;27.83;;;26.27;;
9322;SDS011;4700;48.822;9.270;2023-06-24T00:56:31;28.10;;;26.53;;
9322;SDS011;4700;48.822;9.270;2023-06-24T00:59:21;30.00;;;28.23;;
9322;SDS011;4700;48.822;9.270;2023-06-24T01:02:08;33.17;;;31.30;;
9322;SDS011;4700;48.822;9.270;2023-06-24T01:04:54;30.53;;;29.00;;
9322;SDS011;4700;48.822;9.270;2023-06-24T01:07:40;22.37;;;21.23;;
9322;SDS011;4700;48.822;9.270;2023-06-24T01:10:27;25.20;;;23.83;;
9322;SDS011;4700;48.822;9.270;2023-06-24T01:13:14;25.77;;;24.20;;
9322;SDS011;4700;48.822;9.270;2023-06-24T01:16:00;22.67;;;21.33;;
9322;SDS011;4700;48.822;9.270;2023-06-24T01:18:52;30.30;;;28.53;;
9322;SDS011;4700;48.822;9.270;2023-06-24T01:21:47;25.77;;;24.43;;
9322;SDS011;4700;48.822;9.270;2023-06-24T01:28:01;25.33;;;24.00;;
9322;SDS011;4700;48.822;9.270;2023-06-24T01:31:24;28.30;;;26.70;;
9322;SDS011;4700;48.822;9.270;2023-06-24T01:34:24;27.50;;;25.97;;
9322;SDS011;4700;48.822;9.270;2023-06-24T01:37:16;25.43;;;23.93;;
9322;SDS011;4700;48.822;9.270;2023-06-24T01:40:05;24.37;;;22.80;;
9322;SDS011;4700;48.822;9.270;2023-06-24T01:42:56;34.73;;;32.63;;
9322;SDS011;4700;48.822;9.270;2023-06-24T01:45:44;25.43;;;24.13;;
9322;SDS011;4700;48.822;9.270;2023-06-24T01:48:34;30.43;;;28.60;;
9322;SDS011;4700;48.822;9.270;2023-06-24T01:51:20;25.63;;;24.30;;
9322;SDS011;4700;48.822;9.270;2023-06-24T01:54:10;29.70;;;28.03;;
9322;SDS011;4700;48.822;9.270;2023-06-24T01:56:59;31.33;;;29.40;;
9322;SDS011;4700;48.822;9.270;2023-06-24T01:59:47;28.27;;;26.67;;
9322;SDS011;4700;48.822;9.270;2023-06-24T02:02:35;29.53;;;27.83;;
9322;SDS011;4700;48.822;9.270;2023-06-24T02:05:23;29.83;;;28.20;;
9322;SDS011;4700;48.822;9.270;2023-06-24T02:08:10;34.37;;;32.03;;
9322;SDS011;4700;48.822;9.270;2023-06-24T02:10:57;25.13;;;23.80;;
9322;SDS011;4700;48.822;9.270;2023-06-24T02:13:44;26.80;;;25.33;;
9322;SDS011;4700;48.822;9.270;2023-06-24T02:16:31;34.40;;;32.27;;
9322;SDS011;4700;48.822;9.270;2023-06-24T02:19:18;33.37;;;31.77;;
9322;SDS011;4700;48.822;9.270;2023-06-24T02:22:06;37.83;;;35.63;;
9322;SDS011;4700;48.822;9.270;2023-06-24T02:24:53;31.17;;;29.37;;
9322;SDS011;4700;48.822;9.270;2023-06-24T02:27:40;30.73;;;29.07;;
9322;SDS011;4700;48.822;9.270;2023-06-24T02:30:26;30.33;;;28.70;;
9322;SDS011;4700;48.822;9.270;2023-06-24T02:33:13;34.43;;;32.67;;
9322;SDS011;4700;48.822;9.270;2023-06-24T02:35:59;21.60;;;20.33;;
9322;SDS011;4700;48.822;9.270;2023-06-24T02:38:46;23.93;;;22.50;;
9322;SDS011;4700;48.822;9.270;2023-06-24T02:41:32;33.67;;;31.97;;
9322;SDS011;4700;48.822;9.270;2023-06-24T02:44:18;26.43;;;24.90;;
9322;SDS011;4700;48.822;9.270;2023-06-24T02:46:58;22.23;;;21.07;;
9322;SDS011;4700;48.822;9.270;2023-06-24T02:49:44;26.90;;;25.40;;
9322;SDS011;4700;48.822;9.270;2023-06-24T02:52:32;31.70;;;30.03;;
9322;SDS011;4700;48.822;9.270;2023-06-24T02:55:22;29.53;;;28.07;;
9322;SDS011;4700;48.822;9.270;2023-06-24T02:58:08;24.73;;;23.23;;
9322;SDS011;4700;48.822;9.270;2023-06-24T03:00:58;33.07;;;31.43;;
9322;SDS011;4700;48.822;9.270;2023-06-24T03:03:44;29.33;;;27.87;;
9322;SDS011;4700;48.822;9.270;2023-06-24T03:06:32;33.67;;;32.17;;
9322;SDS011;4700;48.822;9.270;2023-06-24T03:09:20;33.97;;;32.17;;
9322;SDS011;4700;48.822;9.270;2023-06-24T03:12:08;25.33;;;24.10;;
9322;SDS011;4700;48.822;9.270;2023-06-24T03:14:55;29.63;;;28.17;;
9322;SDS011;4700;48.822;9.270;2023-06-24T03:17:41;31.23;;;29.37;;
9322;SDS011;4700;48.822;9.270;2023-06-24T03:20:27;29.13;;;27.73;;
9322;SDS011;4700;48.822;9.270;2023-06-24T03:23:19;33.53;;;31.83;;
9322;SDS011;4700;48.822;9.270;2023-06-24T03:26:05;26.63;;;25.27;;
9322;SDS011;4700;48.822;9.270;2023-06-24T03:28:53;25.33;;;23.93;;
9322;SDS011;4700;48.822;9.270;2023-06-24T03:31:39;27.30;;;25.83;;
9322;SDS011;4700;48.822;9.270;2023-06-24T03:34:28;32.43;;;30.93;;
9322;SDS011;4700;48.822;9.270;2023-06-24T03:37:13;32.93;;;31.27;;
9322;SDS011;4700;48.822;9.270;2023-06-24T03:39:59;28.23;;;26.77;;
9322;SDS011;4700;48.822;9.270;2023-06-24T03:42:45;28.93;;;27.23;;
9322;SDS011;4700;48.822;9.270;2023-06-24T03:45:32;25.47;;;24.20;;
9322;SDS011;4700;48.822;9.270;2023-06-24T03:48:17;29.67;;;28.13;;
9322;SDS011;4700;48.822;9.270;2023-06-24T03:51:04;24.20;;;22.90;;
9322;SDS011;4700;48.822;9.270;2023-06-24T03:53:50;30.57;;;29.07;;
9322;SDS011;4700;48.822;9.270;2023-06-24T03:56:36;35.13;;;33.33;;
9322;SDS011;4700;48.822;9.270;2023-06-24T03:59:22;33.40;;;31.50;;
9322;SDS011;4700;48.822;9.270;2023-06-24T04:02:11;20.37;;;19.37;;
9322;SDS011;4700;48.822;9.270;2023-06-24T04:04:57;28.27;;;26.73;;
9322;SDS011;4700;48.822;9.270;2023-06-24T04:07:43;26.57;;;25.03;;
9322;SDS011;4700;48.822;9.270;2023-06-24T04:10:30;27.07;;;25.63;;
9322;SDS011;4700;48.822;9.270;2023-06-24T04:13:16;31.50;;;29.83;;
9322;SDS011;4700;48.822;9.270;2023-06-24T04:16:01;32.27;;;30.50;;
9322;SDS011;4700;48.822;9.270;2023-06-24T04:18:49;22.73;;;21.30;;
9322;SDS011;4700;48.822;9.270;2023-06-24T04:21:34;30.23;;;28.33;;
9322;SDS011;4700;48.822;9.270;2023-06-24T04:24:21;27.20;;;25.83;;
9322;SDS011;4700;48.822;9.270;2023-06-24T04:27:07;29.07;;;27.50;;
9322;SDS011;4700;48.822;9.270;2023-06-24T04:29:53;23.73;;;22.37;;
9322;SDS011;4700;48.822;9.270;2023-06-24T04:32:41;22.70;;;21.23;;
9322;SDS011;4700;48.822;9.270;2023-06-24T04:35:28;27.40;;;25.70;;
9322;SDS011;4700;48.822;9.270;2023-06-24T04:38:14;22.23;;;20.73;;
9322;SDS011;4700;48.822;9.270;2023-06-24T04:41:02;26.10;;;24.77;;
9322;SDS011;4700;48.822;9.270;2023-06-24T04:43:47;32.43;;;30.47;;
9322;SDS011;4700;48.822;9.270;2023-06-24T04:46:33;27.43;;;25.87;;
9322;SDS011;4700;48.822;9.270;2023-06-24T04:49:19;26.07;;;24.60;;
9322;SDS011;4700;48.822;9.270;2023-06-24T04:52:07;23.53;;;21.73;;
9322;SDS011;4700;48.822;9.270;2023-06-24T04:54:52;26.23;;;24.27;;
9322;SDS011;4700;48.822;9.270;2023-06-24T04:57:38;26.40;;;24.80;;
9322;SDS011;4700;48.822;9.270;2023-06-24T05:00:25;35.43;;;32.90;;
9322;SDS011;4700;48.822;9.270;2023-06-24T05:03:10;29.13;;;27.43;;
9322;SDS011;4700;48.822;9.270;2023-06-24T05:05:56;32.60;;;30.47;;
9322;SDS011;4700;48.822;9.270;2023-06-24T05:08:44;24.43;;;22.43;;
9322;SDS011;4700;48.822;9.270;2023-06-24T05:11:29;21.87;;;20.53;;
9322;SDS011;4700;48.822;9.270;2023-06-24T05:14:15;21.73;;;20.23;;
9322;SDS011;4700;48.822;9.270;2023-06-24T05:17:00;27.43;;;26.00;;
9322;SDS011;4700;48.822;9.270;2023-06-24T05:19:46;31.07;;;29.20;;
9322;SDS011;4700;48.822;9.270;2023-06-24T05:22:32;34.37;;;31.87;;
9322;SDS011;4700;48.822;9.270;2023-06-24T05:25:19;27.63;;;25.50;;
9322;SDS011;4700;48.822;9.270;2023-06-24T05:28:04;27.20;;;25.80;;
9322;SDS011;4700;48.822;9.270;2023-06-24T05:30:50;26.03;;;24.60;;
9322;SDS011;4700;48.822;9.270;2023-06-24T05:33:36;27.90;;;26.13;;
9322;SDS011;4700;48.822;9.270;2023-06-24T05:36:21;25.57;;;23.87;;
9322;SDS011;4700;48.822;9.270;2023-06-24T05:39:07;23.63;;;21.73;;
9322;SDS011;4700;48.822;9.270;2023-06-24T05:41:56;24.57;;;22.90;;
9322;SDS011;4700;48.822;9.270;2023-06-24T05:44:42;26.50;;;25.03;;
9322;SDS011;4700;48.822;9.270;2023-06-24T05:47:27;29.27;;;26.67;;
9322;SDS011;4700;48.822;9.270;2023-06-24T05:50:13;20.77;;;19.13;;
9322;SDS011;4700;48.822;9.270;2023-06-24T05:52:59;18.73;;;17.00;;
9322;SDS011;4700;48.822;9.270;2023-06-24T05:55:45;13.60;;;12.60;;
9322;SDS011;4700;48.822;9.270;2023-06-24T05:58:32;13.27;;;12.03;;
9322;SDS011;4700;48.822;9.270;2023-06-24T06:01:21;16.73;;;15.53;;
9322;SDS011;4700;48.822;9.270;2023-06-24T06:04:50;18.83;;;17.17;;
9322;SDS011;4700;48.822;9.270;2023-06-24T06:07:35;23.20;;;21.07;;
9322;SDS011;4700;48.822;9.270;2023-06-24T06:10:23;18.10;;;16.77;;
9322;SDS011;4700;48.822;9.270;2023-06-24T06:13:09;21.63;;;20.50;;
9322;SDS011;4700;48.822;9.270;2023-06-24T06:15:55;22.27;;;20.93;;
9322;SDS011;4700;48.822;9.270;2023-06-24T06:18:43;26.13;;;24.03;;
9322;SDS011;4700;48.822;9.270;2023-06-24T06:21:29;29.53;;;27.23;;
9322;SDS011;4700;48.822;9.270;2023-06-24T06:24:15;28.40;;;26.20;;
9322;SDS011;4700;48.822;9.270;2023-06-24T06:27:00;24.87;;;23.20;;
9322;SDS011;4700;48.822;9.270;2023-06-24T06:29:46;25.30;;;23.30;;
9322;SDS011;4700;48.822;9.270;2023-06-24T06:32:33;27.03;;;25.43;;
9322;SDS011;4700;48.822;9.270;2023-06-24T06:35:19;21.77;;;20.20;;
9322;SDS011;4700;48.822;9.270;2023-06-24T06:38:05;18.17;;;15.83;;
9322;SDS011;4700;48.822;9.270;2023-06-24T06:40:50;18.83;;;16.17;;
9322;SDS011;4700;48.822;9.270;2023-06-24T06:43:37;21.63;;;17.90;;
9322;SDS011;4700;48.822;9.270;2023-06-24T06:46:23;11.00;;;9.93;;
9322;SDS011;4700;48.822;9.270;2023-06-24T06:49:10;22.50;;;11.00;;
9322;SDS011;4700;48.822;9.270;2023-06-24T06:51:55;17.43;;;9.30;;
9322;SDS011;4700;48.822;9.270;2023-06-24T06:54:40;16.40;;;14.70;;
9322;SDS011;4700;48.822;9.270;2023-06-24T06:57:26;9.13;;;8.23;;
9322;SDS011;4700;48.822;9.270;2023-06-24T07:00:13;21.50;;;13.40;;
9322;SDS011;4700;48.822;9.270;2023-06-24T07:02:59;14.33;;;10.50;;
9322;SDS011;4700;48.822;9.270;2023-06-24T07:05:46;12.73;;;7.60;;
9322;SDS011;4700;48.822;9.270;2023-06-24T07:08:33;8.83;;;7.07;;
9322;SDS011;4700;48.822;9.270;2023-06-24T07:11:18;13.23;;;8.50;;
9322;SDS011;4700;48.822;9.270;2023-06-24T07:14:04;10.23;;;6.17;;
9322;SDS011;4700;48.822;9.270;2023-06-24T07:16:50;5.33;;;4.83;;
9322;SDS011;4700;48.822;9.270;2023-06-24T07:19:36;9.00;;;5.67;;
9322;SDS011;4700;48.822;9.270;2023-06-24T07:22:23;7.37;;;5.50;;
9322;SDS011;4700;48.822;9.270;2023-06-24T07:25:09;8.67;;;4.93;;
9322;SDS011;4700;48.822;9.270;2023-06-24T07:27:54;5.93;;;5.13;;
9322;SDS011;4700;48.822;9.270;2023-06-24T07:30:40;8.83;;;5.80;;
9322;SDS011;4700;48.822;9.270;2023-06-24T07:33:29;5.77;;;4.27;;
9322;SDS011;4700;48.822;9.270;2023-06-24T07:36:15;4.73;;;4.33;;
9322;SDS011;4700;48.822;9.270;2023-06-24T07:39:02;8.20;;;5.43;;
9322;SDS011;4700;48.822;9.270;2023-06-24T07:41:47;10.73;;;5.90;;
9322;SDS011;4700;48.822;9.270;2023-06-24T07:44:33;8.90;;;5.70;;
9322;SDS011;4700;48.822;9.270;2023-06-24T07:47:20;5.53;;;4.50;;
9322;SDS011;4700;48.822;9.270;2023-06-24T07:50:05;5.57;;;5.00;;
9322;SDS011;4700;48.822;9.270;2023-06-24T07:52:57;7.00;;;4.80;;
9322;SDS011;4700;48.822;9.270;2023-06-24T07:55:44;8.43;;;5.43;;
9322;SDS011;4700;48.822;9.270;2023-06-24T07:58:31;5.67;;;5.07;;
9322;SDS011;4700;48.822;9.270;2023-06-24T08:01:17;7.07;;;4.80;;
9322;SDS011;4700;48.822;9.270;2023-06-24T08:04:03;4.80;;;4.40;;
9322;SDS011;4700;48.822;9.270;2023-06-24T08:06:49;10.40;;;5.50;;
9322;SDS011;4700;48.822;9.270;2023-06-24T08:09:35;7.13;;;5.60;;
9322;SDS011;4700;48.822;9.270;2023-06-24T08:12:22;6.20;;;4.57;;
9322;SDS011;4700;48.822;9.270;2023-06-24T08:15:08;5.30;;;4.60;;
9322;SDS011;4700;48.822;9.270;2023-06-24T08:17:54;5.60;;;4.70;;
9322;SDS011;4700;48.822;9.270;2023-06-24T08:20:40;6.00;;;4.90;;
9322;SDS011;4700;48.822;9.270;2023-06-24T08:23:26;5.43;;;4.93;;
9322;SDS011;4700;48.822;9.270;2023-06-24T08:26:11;14.63;;;6.47;;
9322;SDS011;4700;48.822;9.270;2023-06-24T08:42:30;17.73;;;16.53;;
9322;SDS011;4700;48.822;9.270;2023-06-24T08:45:16;21.97;;;20.43;;
9322;SDS011;4700;48.822;9.270;2023-06-24T08:48:02;14.37;;;13.33;;
9322;SDS011;4700;48.822;9.270;2023-06-24T08:50:50;15.70;;;13.73;;
9322;SDS011;4700;48.822;9.270;2023-06-24T08:53:37;13.30;;;12.27;;
9322;SDS011;4700;48.822;9.270;2023-06-24T08:56:27;41.90;;;17.63;;
9322;SDS011;4700;48.822;9.270;2023-06-24T08:59:12;16.60;;;15.43;;
9322;SDS011;4700;48.822;9.270;2023-06-24T09:02:03;20.77;;;19.33;;
9322;SDS011;4700;48.822;9.270;2023-06-24T09:04:49;15.53;;;14.33;;
9322;SDS011;4700;48.822;9.270;2023-06-24T09:07:37;15.83;;;14.60;;
9322;SDS011;4700;48.822;9.270;2023-06-24T09:10:29;8.17;;;7.50;;
9322;SDS011;4700;48.822;9.270;2023-06-24T09:13:16;8.67;;;7.93;;
9322;SDS011;4700;48.822;9.270;2023-06-24T09:16:11;9.23;;;8.53;;
9322;SDS011;4700;48.822;9.270;2023-06-24T09:18:58;12.83;;;11.63;;
9322;SDS011;4700;48.822;9.270;2023-06-24T09:21:44;8.73;;;7.20;;
9322;SDS011;4700;48.822;9.270;2023-06-24T09:24:32;8.57;;;8.00;;
9322;SDS011;4700;48.822;9.270;2023-06-24T09:27:18;7.07;;;6.47;;
9322;SDS011;4700;48.822;9.270;2023-06-24T09:30:16;8.63;;;8.03;;
9322;SDS011;4700;48.822;9.270;2023-06-24T09:33:04;5.93;;;5.43;;
9322;SDS011;4700;48.822;9.270;2023-06-24T09:35:52;5.90;;;5.40;;
9322;SDS011;4700;48.822;9.270;2023-06-24T09:38:37;6.00;;;5.40;;
9322;SDS011;4700;48.822;9.270;2023-06-24T09:41:26;8.13;;;6.40;;
9322;SDS011;4700;48.822;9.270;2023-06-24T09:44:12;11.00;;;8.03;;
9322;SDS011;4700;48.822;9.270;2023-06-24T09:46:58;7.90;;;7.17;;
9322;SDS011;4700;48.822;9.270;2023-06-24T09:49:44;7.20;;;6.50;;
9322;SDS011;4700;48.822;9.270;2023-06-24T09:52:32;8.23;;;7.33;;
9322;SDS011;4700;48.822;9.270;2023-06-24T09:55:20;7.43;;;6.70;;
9322;SDS011;4700;48.822;9.270;2023-06-24T09:58:08;14.80;;;8.17;;
9322;SDS011;4700;48.822;9.270;2023-06-24T10:00:55;7.33;;;5.80;;
9322;SDS011;4700;48.822;9.270;2023-06-24T10:03:41;12.37;;;9.03;;
9322;SDS011;4700;48.822;9.270;2023-06-24T10:06:27;10.27;;;8.17;;
9322;SDS011;4700;48.822;9.270;2023-06-24T10:09:15;8.07;;;7.27;;
9322;SDS011;4700;48.822;9.270;2023-06-24T10:12:03;7.47;;;6.70;;
9322;SDS011;4700;48.822;9.270;2023-06-24T10:14:50;8.33;;;5.63;;
9322;SDS011;4700;48.822;9.270;2023-06-24T10:17:36;7.90;;;6.53;;
9322;SDS011;4700;48.822;9.270;2023-06-24T10:20:25;6.90;;;6.23;;
9322;SDS011;4700;48.822;9.270;2023-06-24T10:23:11;14.70;;;10.13;;
9322;SDS011;4700;48.822;9.270;2023-06-24T10:25:56;11.37;;;8.63;;
9322;SDS011;4700;48.822;9.270;2023-06-24T10:31:58;8.53;;;7.70;;
9322;SDS011;4700;48.822;9.270;2023-06-24T10:34:47;19.07;;;7.00;;
9322;SDS011;4700;48.822;9.270;2023-06-24T10:37:39;11.60;;;8.53;;
9322;SDS011;4700;48.822;9.270;2023-06-24T10:40:33;7.17;;;6.50;;
9322;SDS011;4700;48.822;9.270;2023-06-24T10:43:27;7.70;;;6.17;;
9322;SDS011;4700;48.822;9.270;2023-06-24T10:46:16;18.63;;;11.10;;
9322;SDS011;4700;48.822;9.270;2023-06-24T10:49:05;7.00;;;6.07;;
9322;SDS011;4700;48.822;9.270;2023-06-24T10:51:50;5.57;;;5.07;;
9322;SDS011;4700;48.822;9.270;2023-06-24T10:54:36;12.90;;;8.13;;
9322;SDS011;4700;48.822;9.270;2023-06-24T10:57:23;7.43;;;6.30;;
9322;SDS011;4700;48.822;9.270;2023-06-24T11:00:10;7.60;;;5.47;;
9322;SDS011;4700;48.822;9.270;2023-06-24T11:02:56;7.30;;;5.60;;
9322;SDS011;4700;48.822;9.270;2023-06-24T11:05:44;9.20;;;5.83;;
9322;SDS011;4700;48.822;9.270;2023-06-24T11:08:33;6.23;;;5.23;;
9322;SDS011;4700;48.822;9.270;2023-06-24T11:11:27;7.07;;;5.27;;
9322;SDS011;4700;48.822;9.270;2023-06-24T11:14:15;4.67;;;4.20;;
9322;SDS011;4700;48.822;9.270;2023-06-24T11:17:01;5.03;;;4.53;;
9322;SDS011;4700;48.822;9.270;2023-06-24T11:19:48;6.53;;;4.97;;
9322;SDS011;4700;48.822;9.270;2023-06-24T11:22:35;4.23;;;3.83;;
9322;SDS011;4700;48.822;9.270;2023-06-24T11:25:21;7.87;;;5.47;;
9322;SDS011;4700;48.822;9.270;2023-06-24T11:28:12;6.50;;;5.13;;
9322;SDS011;4700;48.822;9.270;2023-06-24T11:31:05;9.47;;;5.40;;
9322;SDS011;4700;48.822;9.270;2023-06-24T11:33:51;5.43;;;4.47;;
9322;SDS011;4700;48.822;9.270;2023-06-24T11:36:37;10.50;;;6.57;;
9322;SDS011;4700;48.822;9.270;2023-06-24T11:39:27;8.23;;;5.77;;
9322;SDS011;4700;48.822;9.270;2023-06-24T11:42:13;6.40;;;5.17;;
9322;SDS011;4700;48.822;9.270;2023-06-24T11:45:01;4.47;;;4.00;;
9322;SDS011;4700;48.822;9.270;2023-06-24T11:47:47;8.10;;;4.40;;
9322;SDS011;4700;48.822;9.270;2023-06-24T11:50:33;5.33;;;4.80;;
9322;SDS011;4700;48.822;9.270;2023-06-24T11:53:22;8.47;;;5.37;;
9322;SDS011;4700;48.822;9.270;2023-06-24T11:56:17;7.93;;;5.23;;
9322;SDS011;4700;48.822;9.270;2023-06-24T11:59:03;4.97;;;4.47;;
9322;SDS011;4700;48.822;9.270;2023-06-24T12:01:53;8.43;;;5.87;;
9322;SDS011;4700;48.822;9.270;2023-06-24T12:04:46;5.10;;;4.60;;
9322;SDS011;4700;48.822;9.270;2023-06-24T12:07:33;6.23;;;5.63;;
9322;SDS011;4700;48.822;9.270;2023-06-24T12:10:19;5.70;;;3.90;;
9322;SDS011;4700;48.822;9.270;2023-06-24T12:13:06;4.10;;;3.80;;
9322;SDS011;4700;48.822;9.270;2023-06-24T12:15:52;4.70;;;3.93;;
9322;SDS011;4700;48.822;9.270;2023-06-24T12:18:38;5.37;;;4.53;;
9322;SDS011;4700;48.822;9.270;2023-06-24T12:21:27;4.80;;;4.30;;
9322;SDS011;4700;48.822;9.270;2023-06-24T12:24:13;4.07;;;3.70;;
9322;SDS011;4700;48.822;9.270;2023-06-24T12:26:59;4.43;;;4.03;;
9322;SDS011;4700;48.822;9.270;2023-06-24T12:29:45;6.87;;;5.40;;
9322;SDS011;4700;48.822;9.270;2023-06-24T12:32:31;8.37;;;6.57;;
9322;SDS011;4700;48.822;9.270;2023-06-24T12:35:21;4.23;;;3.83;;
9322;SDS011;4700;48.822;9.270;2023-06-24T12:38:08;4.33;;;3.93;;
9322;SDS011;4700;48.822;9.270;2023-06-24T12:40:54;5.37;;;4.87;;
9322;SDS011;4700;48.822;9.270;2023-06-24T12:43:40;4.60;;;4.20;;
9322;SDS011;4700;48.822;9.270;2023-06-24T12:48:57;5.53;;;4.93;;
9322;SDS011;4700;48.822;9.270;2023-06-24T12:51:43;5.13;;;4.63;;
9322;SDS011;4700;48.822;9.270;2023-06-24T12:54:30;4.40;;;4.00;;
9322;SDS011;4700;48.822;9.270;2023-06-24T12:57:15;5.30;;;4.57;;
9322;SDS011;4700;48.822;9.270;2023-06-24T13:00:01;5.13;;;4.67;;
9322;SDS011;4700;48.822;9.270;2023-06-24T13:02:48;8.03;;;5.17;;
9322;SDS011;4700;48.822;9.270;2023-06-24T13:05:36;5.23;;;4.47;;
9322;SDS011;4700;48.822;9.270;2023-06-24T13:08:21;4.70;;;3.87;;
9322;SDS011;4700;48.822;9.270;2023-06-24T13:11:07;7.33;;;4.57;;
9322;SDS011;4700;48.822;9.270;2023-06-24T13:13:53;3.93;;;3.63;;
9322;SDS011;4700;48.822;9.270;2023-06-24T13:16:38;4.60;;;4.20;;
9322;SDS011;4700;48.822;9.270;2023-06-24T13:19:24;4.53;;;4.13;;
9322;SDS011;4700;48.822;9.270;2023-06-24T13:22:11;6.17;;;5.00;;
9322;SDS011;4700;48.822;9.270;2023-06-24T13:24:57;5.17;;;4.60;;
9322;SDS011;4700;48.822;9.270;2023-06-24T13:27:43;5.50;;;4.90;;
9322;SDS011;4700;48.822;9.270;2023-06-24T13:30:29;5.37;;;4.70;;
9322;SDS011;4700;48.822;9.270;2023-06-24T13:33:15;4.77;;;4.27;;
9322;SDS011;4700;48.822;9.270;2023-06-24T13:36:00;3.47;;;3.17;;
9322;SDS011;4700;48.822;9.270;2023-06-24T13:38:50;4.93;;;4.40;;
9322;SDS011;4700;48.822;9.270;2023-06-24T13:41:36;7.60;;;4.97;;
9322;SDS011;4700;48.822;9.270;2023-06-24T13:44:21;5.17;;;4.67;;
9322;SDS011;4700;48.822;9.270;2023-06-24T13:47:07;6.70;;;5.63;;
9322;SDS011;4700;48.822;9.270;2023-06-24T13:49:52;3.90;;;3.60;;
9322;SDS011;4700;48.822;9.270;2023-06-24T13:52:38;7.50;;;5.40;;
9322;SDS011;4700;48.822;9.270;2023-06-24T13:55:25;9.13;;;5.13;;
9322;SDS011;4700;48.822;9.270;2023-06-24T13:58:11;8.60;;;5.33;;
9322;SDS011;4700;48.822;9.270;2023-06-24T14:00:56;5.00;;;4.03;;
9322;SDS011;4700;48.822;9.270;2023-06-24T14:03:42;4.30;;;3.93;;
9322;SDS011;4700;48.822;9.270;2023-06-24T14:06:28;6.40;;;4.13;;
9322;SDS011;4700;48.822;9.270;2023-06-24T14:09:14;4.43;;;4.00;;
9322;SDS011;4700;48.822;9.270;2023-06-24T14:12:02;7.50;;;4.93;;
9322;SDS011;4700;48.822;9.270;2023-06-24T14:14:48;4.23;;;3.83;;
9322;SDS011;4700;48.822;9.270;2023-06-24T14:17:34;3.90;;;3.60;;
9322;SDS011;4700;48.822;9.270;2023-06-24T14:20:19;14.27;;;8.27;;
9322;SDS011;4700;48.822;9.270;2023-06-24T14:23:05;5.93;;;4.70;;
9322;SDS011;4700;48.822;9.270;2023-06-24T14:25:51;3.50;;;3.30;;
9322;SDS011;4700;48.822;9.270;2023-06-24T14:28:38;4.30;;;3.93;;
9322;SDS011;4700;48.822;9.270;2023-06-24T14:31:24;4.33;;;3.93;;
9322;SDS011;4700;48.822;9.270;2023-06-24T14:34:10;5.33;;;4.37;;
9322;SDS011;4700;48.822;9.270;2023-06-24T14:36:58;4.30;;;3.90;;
9322;SDS011;4700;48.822;9.270;2023-06-24T14:39:44;5.23;;;4.43;;
9322;SDS011;4700;48.822;9.270;2023-06-24T14:42:29;6.40;;;4.53;;
9322;SDS011;4700;48.822;9.270;2023-06-24T14:45:17;4.20;;;3.90;;
9322;SDS011;4700;48.822;9.270;2023-06-24T14:48:02;6.50;;;4.70;;
9322;SDS011;4700;48.822;9.270;2023-06-24T14:50:48;4.23;;;3.67;;
9322;SDS011;4700;48.822;9.270;2023-06-24T14:53:34;5.97;;;5.13;;
9322;SDS011;4700;48.822;9.270;2023-06-24T14:56:19;7.80;;;5.30;;
9322;SDS011;4700;48.822;9.270;2023-06-24T14:59:05;4.13;;;3.73;;
9322;SDS011;4700;48.822;9.270;2023-06-24T15:01:52;4.23;;;3.93;;
9322;SDS011;4700;48.822;9.270;2023-06-24T15:04:37;7.27;;;5.23;;
9322;SDS011;4700;48.822;9.270;2023-06-24T15:07:24;5.13;;;4.73;;
9322;SDS011;4700;48.822;9.270;2023-06-24T15:10:11;3.70;;;3.40;;
9322;SDS011;4700;48.822;9.270;2023-06-24T15:12:57;4.50;;;4.10;;
9322;SDS011;4700;48.822;9.270;2023-06-24T15:15:43;9.07;;;5.87;;
9322;SDS011;4700;48.822;9.270;2023-06-24T15:18:30;4.53;;;4.03;;
9322;SDS011;4700;48.822;9.270;2023-06-24T15:21:16;6.30;;;5.37;;
9322;SDS011;4700;48.822;9.270;2023-06-24T15:24:02;4.47;;;4.03;;
9322;SDS011;4700;48.822;9.270;2023-06-24T15:26:48;4.70;;;4.20;;
9322;SDS011;4700;48.822;9.270;2023-06-24T15:29:33;4.80;;;4.30;;
9322;SDS011;4700;48.822;9.270;2023-06-24T15:32:19;6.73;;;3.83;;
9322;SDS011;4700;48.822;9.270;2023-06-24T15:35:06;5.43;;;4.47;;
9322;SDS011;4700;48.822;9.270;2023-06-24T15:37:52;3.70;;;3.40;;
9322;SDS011;4700;48.822;9.270;2023-06-24T15:40:39;4.20;;;3.90;;
9322;SDS011;4700;48.822;9.270;2023-06-24T15:43:26;5.73;;;4.83;;
9322;SDS011;4700;48.822;9.270;2023-06-24T15:46:12;7.40;;;4.73;;
9322;SDS011;4700;48.822;9.270;2023-06-24T15:48:57;6.67;;;4.83;;
9322;SDS011;4700;48.822;9.270;2023-06-24T15:51:44;7.63;;;4.53;;
9322;SDS011;4700;48.822;9.270;2023-06-24T15:54:32;4.23;;;3.93;;
9322;SDS011;4700;48.822;9.270;2023-06-24T15:57:18;5.53;;;3.93;;
9322;SDS011;4700;48.822;9.270;2023-06-24T16:00:04;5.20;;;4.23;;
9322;SDS011;4700;48.822;9.270;2023-06-24T16:02:50;5.00;;;4.40;;
9322;SDS011;4700;48.822;9.270;2023-06-24T16:05:38;5.47;;;4.17;;
9322;SDS011;4700;48.822;9.270;2023-06-24T16:08:25;5.13;;;4.33;;
9322;SDS011;4700;48.822;9.270;2023-06-24T16:11:11;5.03;;;4.53;;
9322;SDS011;4700;48.822;9.270;2023-06-24T16:13:56;6.17;;;5.20;;
9322;SDS011;4700;48.822;9.270;2023-06-24T16:16:42;4.00;;;3.70;;
9322;SDS011;4700;48.822;9.270;2023-06-24T16:19:28;4.53;;;4.13;;
9322;SDS011;4700;48.822;9.270;2023-06-24T16:22:13;7.83;;;5.23;;
9322;SDS011;4700;48.822;9.270;2023-06-24T16:25:00;9.20;;;5.13;;
9322;SDS011;4700;48.822;9.270;2023-06-24T16:27:46;5.70;;;4.10;;
9322;SDS011;4700;48.822;9.270;2023-06-24T16:30:32;6.20;;;4.47;;
9322;SDS011;4700;48.822;9.270;2023-06-24T16:33:18;4.87;;;4.37;;
9322;SDS011;4700;48.822;9.270;2023-06-24T16:36:03;5.43;;;4.00;;
9322;SDS011;4700;48.822;9.270;2023-06-24T16:38:49;4.47;;;3.90;;
9322;SDS011;4700;48.822;9.270;2023-06-24T16:41:36;7.73;;;5.07;;
9322;SDS011;4700;48.822;9.270;2023-06-24T16:44:22;4.90;;;4.03;;
9322;SDS011;4700;48.822;9.270;2023-06-24T16:49:44;3.43;;;3.13;;
9322;SDS011;4700;48.822;9.270;2023-06-24T16:52:31;10.00;;;5.80;;
9322;SDS011;4700;48.822;9.270;2023-06-24T16:55:17;7.53;;;4.93;;
9322;SDS011;4700;48.822;9.270;2023-06-24T16:58:05;5.13;;;4.50;;
9322;SDS011;4700;48.822;9.270;2023-06-24T17:00:50;4.70;;;3.43;;
9322;SDS011;4700;48.822;9.270;2023-06-24T17:03:36;3.10;;;2.90;;
9322;SDS011;4700;48.822;9.270;2023-06-24T17:06:30;4.27;;;3.87;;
9322;SDS011;4700;48.822;9.270;2023-06-24T17:09:17;4.23;;;3.90;;
9322;SDS011;4700;48.822;9.270;2023-06-24T17:12:03;4.63;;;4.03;;
9322;SDS011;4700;48.822;9.270;2023-06-24T17:14:51;6.00;;;3.47;;
9322;SDS011;4700;48.822;9.270;2023-06-24T17:17:37;6.70;;;5.33;;
9322;SDS011;4700;48.822;9.270;2023-06-24T17:20:23;5.27;;;4.20;;
9322;SDS011;4700;48.822;9.270;2023-06-24T17:23:11;5.00;;;4.20;;
9322;SDS011;4700;48.822;9.270;2023-06-24T17:25:57;10.30;;;6.37;;
9322;SDS011;4700;48.822;9.270;2023-06-24T17:28:43;6.33;;;4.30;;